sensor_id;sensor_type;location;lat;lon;timestamp;P1;durP1;ratioP1;P2;durP2;ratioP2
10721;SDS011;5412;59.450;18.124;2023-05-07T00:00:27;4.23;;;2.30;;
10721;SDS011;5412;59.450;18.124;2023-05-07T00:02:53;3.67;;;1.70;;
10721;SDS011;5412;59.450;18.124;2023-05-07T00:05:19;3.20;;;2.00;;
10721;SDS011;5412;59.450;18.124;2023-05-07T00:07:45;10.60;;;2.87;;
10721;SDS011;5412;59.450;18.124;2023-05-07T00:10:11;4.83;;;2.20;;
10721;SDS011;5412;59.450;18.124;2023-05-07T00:12:37;6.40;;;2.30;;
10721;SDS011;5412;59.450;18.124;2023-05-07T00:15:04;5.63;;;2.30;;
10721;SDS011;5412;59.450;18.124;2023-05-07T00:17:31;4.67;;;2.27;;
10721;SDS011;5412;59.450;18.124;2023-05-07T00:19:57;3.33;;;1.93;;
10721;SDS011;5412;59.450;18.124;2023-05-07T00:22:23;5.50;;;2.20;;
10721;SDS011;5412;59.450;18.124;2023-05-07T00:24:49;3.10;;;2.00;;
10721;SDS011;5412;59.450;18.124;2023-05-07T00:27:15;5.93;;;2.10;;
10721;SDS011;5412;59.450;18.124;2023-05-07T00:29:40;3.10;;;2.30;;
10721;SDS011;5412;59.450;18.124;2023-05-07T00:32:06;4.27;;;2.10;;
10721;SDS011;5412;59.450;18.124;2023-05-07T00:34:33;7.33;;;2.17;;
10721;SDS011;5412;59.450;18.124;2023-05-07T00:36:58;2.90;;;2.47;;
10721;SDS011;5412;59.450;18.124;2023-05-07T00:39:24;2.47;;;2.27;;
10721;SDS011;5412;59.450;18.124;2023-05-07T00:41:50;2.43;;;2.07;;
10721;SDS011;5412;59.450;18.124;2023-05-07T00:44:16;4.07;;;2.10;;
10721;SDS011;5412;59.450;18.124;2023-05-07T00:46:43;3.73;;;2.40;;
10721;SDS011;5412;59.450;18.124;2023-05-07T00:49:09;2.87;;;2.30;;
10721;SDS011;5412;59.450;18.124;2023-05-07T00:51:36;4.07;;;2.17;;
10721;SDS011;5412;59.450;18.124;2023-05-07T00:54:02;2.87;;;2.27;;
10721;SDS011;5412;59.450;18.124;2023-05-07T00:56:28;4.80;;;2.10;;
10721;SDS011;5412;59.450;18.124;2023-05-07T00:58:54;2.70;;;2.20;;
10721;SDS011;5412;59.450;18.124;2023-05-07T01:01:20;3.13;;;2.10;;
10721;SDS011;5412;59.450;18.124;2023-05-07T01:03:46;3.03;;;1.90;;
10721;SDS011;5412;59.450;18.124;2023-05-07T01:06:12;2.53;;;2.10;;
10721;SDS011;5412;59.450;18.124;2023-05-07T01:08:41;2.63;;;2.17;;
10721;SDS011;5412;59.450;18.124;2023-05-07T01:11:08;3.10;;;2.10;;
10721;SDS011;5412;59.450;18.124;2023-05-07T01:13:35;2.93;;;2.50;;
10721;SDS011;5412;59.450;18.124;2023-05-07T01:16:02;5.47;;;2.40;;
10721;SDS011;5412;59.450;18.124;2023-05-07T01:18:28;3.60;;;1.90;;
10721;SDS011;5412;59.450;18.124;2023-05-07T01:20:55;4.73;;;1.97;;
10721;SDS011;5412;59.450;18.124;2023-05-07T01:23:24;2.17;;;1.97;;
10721;SDS011;5412;59.450;18.124;2023-05-07T01:25:53;2.40;;;1.90;;
10721;SDS011;5412;59.450;18.124;2023-05-07T01:28:20;4.03;;;2.20;;
10721;SDS011;5412;59.450;18.124;2023-05-07T01:30:47;4.70;;;2.40;;
10721;SDS011;5412;59.450;18.124;2023-05-07T01:33:21;6.67;;;2.10;;
10721;SDS011;5412;59.450;18.124;2023-05-07T01:35:48;3.53;;;2.17;;
10721;SDS011;5412;59.450;18.124;2023-05-07T01:38:17;4.60;;;2.60;;
10721;SDS011;5412;59.450;18.124;2023-05-07T01:40:43;3.13;;;2.30;;
10721;SDS011;5412;59.450;18.124;2023-05-07T01:43:10;4.30;;;2.70;;
10721;SDS011;5412;59.450;18.124;2023-05-07T01:45:36;2.50;;;2.10;;
10721;SDS011;5412;59.450;18.124;2023-05-07T01:48:03;2.60;;;2.17;;
10721;SDS011;5412;59.450;18.124;2023-05-07T01:50:29;2.90;;;2.40;;
10721;SDS011;5412;59.450;18.124;2023-05-07T01:52:56;4.20;;;2.53;;
10721;SDS011;5412;59.450;18.124;2023-05-07T01:55:22;3.80;;;2.27;;
10721;SDS011;5412;59.450;18.124;2023-05-07T01:57:48;6.23;;;2.20;;
10721;SDS011;5412;59.450;18.124;2023-05-07T02:00:14;3.13;;;2.03;;
10721;SDS011;5412;59.450;18.124;2023-05-07T02:02:40;2.63;;;2.23;;
10721;SDS011;5412;59.450;18.124;2023-05-07T02:05:06;3.10;;;2.03;;
10721;SDS011;5412;59.450;18.124;2023-05-07T02:07:32;3.73;;;2.33;;
10721;SDS011;5412;59.450;18.124;2023-05-07T02:09:58;2.63;;;2.10;;
10721;SDS011;5412;59.450;18.124;2023-05-07T02:12:24;3.63;;;2.43;;
10721;SDS011;5412;59.450;18.124;2023-05-07T02:14:50;4.77;;;2.20;;
10721;SDS011;5412;59.450;18.124;2023-05-07T02:17:15;4.27;;;2.43;;
10721;SDS011;5412;59.450;18.124;2023-05-07T02:19:41;2.97;;;2.10;;
10721;SDS011;5412;59.450;18.124;2023-05-07T02:22:07;4.43;;;2.20;;
10721;SDS011;5412;59.450;18.124;2023-05-07T02:24:33;2.40;;;2.20;;
10721;SDS011;5412;59.450;18.124;2023-05-07T02:26:58;2.53;;;2.17;;
10721;SDS011;5412;59.450;18.124;2023-05-07T02:29:24;2.43;;;2.17;;
10721;SDS011;5412;59.450;18.124;2023-05-07T02:31:50;2.53;;;2.33;;
10721;SDS011;5412;59.450;18.124;2023-05-07T02:34:18;3.70;;;2.20;;
10721;SDS011;5412;59.450;18.124;2023-05-07T02:36:44;3.67;;;2.80;;
10721;SDS011;5412;59.450;18.124;2023-05-07T02:39:10;3.77;;;2.20;;
10721;SDS011;5412;59.450;18.124;2023-05-07T02:41:37;4.30;;;2.40;;
10721;SDS011;5412;59.450;18.124;2023-05-07T02:44:03;2.63;;;2.17;;
10721;SDS011;5412;59.450;18.124;2023-05-07T02:46:29;5.00;;;2.60;;
10721;SDS011;5412;59.450;18.124;2023-05-07T02:48:55;2.53;;;2.20;;
10721;SDS011;5412;59.450;18.124;2023-05-07T02:51:21;3.50;;;2.40;;
10721;SDS011;5412;59.450;18.124;2023-05-07T02:53:47;6.20;;;2.83;;
10721;SDS011;5412;59.450;18.124;2023-05-07T02:56:13;4.53;;;2.57;;
10721;SDS011;5412;59.450;18.124;2023-05-07T02:58:39;4.53;;;2.30;;
10721;SDS011;5412;59.450;18.124;2023-05-07T03:01:05;5.60;;;2.50;;
10721;SDS011;5412;59.450;18.124;2023-05-07T03:03:31;3.83;;;2.30;;
10721;SDS011;5412;59.450;18.124;2023-05-07T03:05:57;3.60;;;2.50;;
10721;SDS011;5412;59.450;18.124;2023-05-07T03:08:23;2.70;;;2.30;;
10721;SDS011;5412;59.450;18.124;2023-05-07T03:10:49;3.13;;;1.80;;
10721;SDS011;5412;59.450;18.124;2023-05-07T03:13:14;3.40;;;2.27;;
10721;SDS011;5412;59.450;18.124;2023-05-07T03:15:40;2.90;;;2.53;;
10721;SDS011;5412;59.450;18.124;2023-05-07T03:18:06;4.47;;;2.67;;
10721;SDS011;5412;59.450;18.124;2023-05-07T03:20:32;2.70;;;2.50;;
10721;SDS011;5412;59.450;18.124;2023-05-07T03:22:58;5.63;;;2.70;;
10721;SDS011;5412;59.450;18.124;2023-05-07T03:25:24;3.87;;;2.60;;
10721;SDS011;5412;59.450;18.124;2023-05-07T03:27:50;2.77;;;2.50;;
10721;SDS011;5412;59.450;18.124;2023-05-07T03:30:15;5.33;;;2.53;;
10721;SDS011;5412;59.450;18.124;2023-05-07T03:32:41;3.63;;;2.20;;
10721;SDS011;5412;59.450;18.124;2023-05-07T03:35:07;5.17;;;2.77;;
10721;SDS011;5412;59.450;18.124;2023-05-07T03:37:32;4.43;;;2.63;;
10721;SDS011;5412;59.450;18.124;2023-05-07T03:39:58;3.87;;;2.90;;
10721;SDS011;5412;59.450;18.124;2023-05-07T03:42:24;4.10;;;2.10;;
10721;SDS011;5412;59.450;18.124;2023-05-07T03:44:50;4.70;;;2.93;;
10721;SDS011;5412;59.450;18.124;2023-05-07T03:47:15;3.20;;;2.50;;
10721;SDS011;5412;59.450;18.124;2023-05-07T03:49:41;3.13;;;2.63;;
10721;SDS011;5412;59.450;18.124;2023-05-07T03:52:07;5.00;;;2.70;;
10721;SDS011;5412;59.450;18.124;2023-05-07T03:54:32;5.63;;;2.20;;
10721;SDS011;5412;59.450;18.124;2023-05-07T03:56:58;3.43;;;2.60;;
10721;SDS011;5412;59.450;18.124;2023-05-07T03:59:24;2.40;;;2.20;;
10721;SDS011;5412;59.450;18.124;2023-05-07T04:01:49;2.77;;;2.43;;
10721;SDS011;5412;59.450;18.124;2023-05-07T04:04:15;3.93;;;3.17;;
10721;SDS011;5412;59.450;18.124;2023-05-07T04:06:41;4.90;;;2.67;;
10721;SDS011;5412;59.450;18.124;2023-05-07T04:09:07;3.10;;;2.30;;
10721;SDS011;5412;59.450;18.124;2023-05-07T04:11:33;4.53;;;2.40;;
10721;SDS011;5412;59.450;18.124;2023-05-07T04:14:00;3.30;;;2.07;;
10721;SDS011;5412;59.450;18.124;2023-05-07T04:16:26;3.50;;;2.47;;
10721;SDS011;5412;59.450;18.124;2023-05-07T04:18:52;5.57;;;2.23;;
10721;SDS011;5412;59.450;18.124;2023-05-07T04:21:18;4.53;;;2.40;;
10721;SDS011;5412;59.450;18.124;2023-05-07T04:23:48;2.30;;;2.10;;
10721;SDS011;5412;59.450;18.124;2023-05-07T04:26:14;6.27;;;2.30;;
10721;SDS011;5412;59.450;18.124;2023-05-07T04:28:41;2.70;;;2.20;;
10721;SDS011;5412;59.450;18.124;2023-05-07T04:31:07;2.47;;;2.27;;
10721;SDS011;5412;59.450;18.124;2023-05-07T04:33:33;5.20;;;2.40;;
10721;SDS011;5412;59.450;18.124;2023-05-07T04:36:02;3.20;;;2.40;;
10721;SDS011;5412;59.450;18.124;2023-05-07T04:38:29;3.30;;;1.90;;
10721;SDS011;5412;59.450;18.124;2023-05-07T04:40:56;3.70;;;2.30;;
10721;SDS011;5412;59.450;18.124;2023-05-07T04:43:22;3.73;;;2.40;;
10721;SDS011;5412;59.450;18.124;2023-05-07T04:45:51;2.80;;;2.57;;
10721;SDS011;5412;59.450;18.124;2023-05-07T04:48:17;3.70;;;2.50;;
10721;SDS011;5412;59.450;18.124;2023-05-07T04:50:49;2.80;;;2.33;;
10721;SDS011;5412;59.450;18.124;2023-05-07T04:53:17;2.03;;;1.93;;
10721;SDS011;5412;59.450;18.124;2023-05-07T04:55:43;3.90;;;2.43;;
10721;SDS011;5412;59.450;18.124;2023-05-07T04:58:10;2.73;;;2.20;;
10721;SDS011;5412;59.450;18.124;2023-05-07T05:00:36;3.73;;;2.20;;
10721;SDS011;5412;59.450;18.124;2023-05-07T05:03:03;2.87;;;2.20;;
10721;SDS011;5412;59.450;18.124;2023-05-07T05:05:30;3.37;;;2.63;;
10721;SDS011;5412;59.450;18.124;2023-05-07T05:07:55;2.87;;;2.20;;
10721;SDS011;5412;59.450;18.124;2023-05-07T05:10:21;2.83;;;2.20;;
10721;SDS011;5412;59.450;18.124;2023-05-07T05:12:47;3.83;;;2.40;;
10721;SDS011;5412;59.450;18.124;2023-05-07T05:15:13;3.77;;;2.10;;
10721;SDS011;5412;59.450;18.124;2023-05-07T05:17:39;2.90;;;2.30;;
10721;SDS011;5412;59.450;18.124;2023-05-07T05:20:05;2.83;;;2.20;;
10721;SDS011;5412;59.450;18.124;2023-05-07T05:22:31;3.03;;;2.10;;
10721;SDS011;5412;59.450;18.124;2023-05-07T05:24:57;2.00;;;1.83;;
10721;SDS011;5412;59.450;18.124;2023-05-07T05:27:23;1.77;;;1.67;;
10721;SDS011;5412;59.450;18.124;2023-05-07T05:29:49;3.50;;;1.80;;
10721;SDS011;5412;59.450;18.124;2023-05-07T05:32:14;3.13;;;1.93;;
10721;SDS011;5412;59.450;18.124;2023-05-07T05:34:40;2.87;;;2.10;;
10721;SDS011;5412;59.450;18.124;2023-05-07T05:37:06;2.90;;;1.77;;
10721;SDS011;5412;59.450;18.124;2023-05-07T05:39:32;2.57;;;2.00;;
10721;SDS011;5412;59.450;18.124;2023-05-07T05:41:57;6.90;;;2.03;;
10721;SDS011;5412;59.450;18.124;2023-05-07T05:44:23;3.00;;;2.33;;
10721;SDS011;5412;59.450;18.124;2023-05-07T05:46:49;3.03;;;2.20;;
10721;SDS011;5412;59.450;18.124;2023-05-07T05:49:15;4.03;;;1.90;;
10721;SDS011;5412;59.450;18.124;2023-05-07T05:51:40;3.17;;;1.80;;
10721;SDS011;5412;59.450;18.124;2023-05-07T05:54:06;4.67;;;2.10;;
10721;SDS011;5412;59.450;18.124;2023-05-07T05:56:32;2.37;;;1.90;;
10721;SDS011;5412;59.450;18.124;2023-05-07T05:58:58;2.10;;;1.90;;
10721;SDS011;5412;59.450;18.124;2023-05-07T06:01:24;1.93;;;1.73;;
10721;SDS011;5412;59.450;18.124;2023-05-07T06:03:49;4.47;;;1.90;;
10721;SDS011;5412;59.450;18.124;2023-05-07T06:06:15;4.33;;;2.23;;
10721;SDS011;5412;59.450;18.124;2023-05-07T06:08:41;2.53;;;1.70;;
10721;SDS011;5412;59.450;18.124;2023-05-07T06:11:07;2.27;;;1.60;;
10721;SDS011;5412;59.450;18.124;2023-05-07T06:13:33;5.30;;;1.88;;
10721;SDS011;5412;59.450;18.124;2023-05-07T06:15:59;1.73;;;1.57;;
10721;SDS011;5412;59.450;18.124;2023-05-07T06:18:24;6.87;;;1.70;;
10721;SDS011;5412;59.450;18.124;2023-05-07T06:20:51;3.53;;;2.00;;
10721;SDS011;5412;59.450;18.124;2023-05-07T06:23:17;3.63;;;1.50;;
10721;SDS011;5412;59.450;18.124;2023-05-07T06:25:47;2.37;;;2.17;;
10721;SDS011;5412;59.450;18.124;2023-05-07T06:28:15;2.53;;;1.70;;
10721;SDS011;5412;59.450;18.124;2023-05-07T06:30:41;2.90;;;1.57;;
10721;SDS011;5412;59.450;18.124;2023-05-07T06:33:06;2.17;;;1.97;;
10721;SDS011;5412;59.450;18.124;2023-05-07T06:35:32;5.57;;;1.90;;
10721;SDS011;5412;59.450;18.124;2023-05-07T06:37:58;2.83;;;1.90;;
10721;SDS011;5412;59.450;18.124;2023-05-07T06:40:24;2.33;;;2.00;;
10721;SDS011;5412;59.450;18.124;2023-05-07T06:42:50;2.40;;;1.70;;
10721;SDS011;5412;59.450;18.124;2023-05-07T06:45:16;5.22;;;2.22;;
10721;SDS011;5412;59.450;18.124;2023-05-07T06:47:42;2.05;;;1.85;;
10721;SDS011;5412;59.450;18.124;2023-05-07T06:50:08;1.95;;;1.60;;
10721;SDS011;5412;59.450;18.124;2023-05-07T06:52:34;2.47;;;2.28;;
10721;SDS011;5412;59.450;18.124;2023-05-07T06:55:00;2.03;;;1.90;;
10721;SDS011;5412;59.450;18.124;2023-05-07T06:57:26;2.10;;;1.90;;
10721;SDS011;5412;59.450;18.124;2023-05-07T06:59:52;2.47;;;1.60;;
10721;SDS011;5412;59.450;18.124;2023-05-07T07:02:17;1.80;;;1.70;;
10721;SDS011;5412;59.450;18.124;2023-05-07T07:04:43;1.90;;;1.67;;
10721;SDS011;5412;59.450;18.124;2023-05-07T07:07:10;2.28;;;1.38;;
10721;SDS011;5412;59.450;18.124;2023-05-07T07:09:36;1.88;;;1.77;;
10721;SDS011;5412;59.450;18.124;2023-05-07T07:12:02;3.55;;;2.00;;
10721;SDS011;5412;59.450;18.124;2023-05-07T07:14:27;1.70;;;1.33;;
10721;SDS011;5412;59.450;18.124;2023-05-07T07:16:53;1.67;;;1.42;;
10721;SDS011;5412;59.450;18.124;2023-05-07T07:19:19;2.42;;;1.45;;
10721;SDS011;5412;59.450;18.124;2023-05-07T07:21:45;1.88;;;1.70;;
10721;SDS011;5412;59.450;18.124;2023-05-07T07:24:12;1.90;;;1.45;;
10721;SDS011;5412;59.450;18.124;2023-05-07T07:26:38;3.67;;;1.75;;
10721;SDS011;5412;59.450;18.124;2023-05-07T07:29:05;2.10;;;1.48;;
10721;SDS011;5412;59.450;18.124;2023-05-07T07:31:31;1.83;;;1.73;;
10721;SDS011;5412;59.450;18.124;2023-05-07T07:33:57;2.20;;;1.45;;
10721;SDS011;5412;59.450;18.124;2023-05-07T07:36:23;2.53;;;1.80;;
10721;SDS011;5412;59.450;18.124;2023-05-07T07:38:49;1.52;;;1.40;;
10721;SDS011;5412;59.450;18.124;2023-05-07T07:41:14;2.47;;;1.42;;
10721;SDS011;5412;59.450;18.124;2023-05-07T07:43:40;1.38;;;1.27;;
10721;SDS011;5412;59.450;18.124;2023-05-07T07:46:06;2.10;;;1.20;;
10721;SDS011;5412;59.450;18.124;2023-05-07T07:48:31;1.55;;;1.42;;
10721;SDS011;5412;59.450;18.124;2023-05-07T07:50:58;1.50;;;1.40;;
10721;SDS011;5412;59.450;18.124;2023-05-07T07:53:23;3.63;;;1.40;;
10721;SDS011;5412;59.450;18.124;2023-05-07T07:55:49;1.40;;;1.30;;
10721;SDS011;5412;59.450;18.124;2023-05-07T07:58:15;2.42;;;1.67;;
10721;SDS011;5412;59.450;18.124;2023-05-07T08:00:41;2.92;;;1.33;;
10721;SDS011;5412;59.450;18.124;2023-05-07T08:03:08;2.42;;;1.50;;
10721;SDS011;5412;59.450;18.124;2023-05-07T08:05:35;4.32;;;1.30;;
10721;SDS011;5412;59.450;18.124;2023-05-07T08:08:01;2.15;;;1.42;;
10721;SDS011;5412;59.450;18.124;2023-05-07T08:10:27;2.25;;;1.50;;
10721;SDS011;5412;59.450;18.124;2023-05-07T08:12:53;1.40;;;1.30;;
10721;SDS011;5412;59.450;18.124;2023-05-07T08:15:18;2.53;;;1.77;;
10721;SDS011;5412;59.450;18.124;2023-05-07T08:17:44;1.33;;;1.17;;
10721;SDS011;5412;59.450;18.124;2023-05-07T08:20:10;1.85;;;1.33;;
10721;SDS011;5412;59.450;18.124;2023-05-07T08:22:36;4.60;;;1.48;;
10721;SDS011;5412;59.450;18.124;2023-05-07T08:25:02;1.42;;;1.33;;
10721;SDS011;5412;59.450;18.124;2023-05-07T08:27:28;4.13;;;1.50;;
10721;SDS011;5412;59.450;18.124;2023-05-07T08:29:54;1.30;;;1.20;;
10721;SDS011;5412;59.450;18.124;2023-05-07T08:32:20;1.95;;;1.20;;
10721;SDS011;5412;59.450;18.124;2023-05-07T08:34:46;1.48;;;1.35;;
10721;SDS011;5412;59.450;18.124;2023-05-07T08:37:12;1.88;;;1.20;;
10721;SDS011;5412;59.450;18.124;2023-05-07T08:39:38;1.10;;;1.08;;
10721;SDS011;5412;59.450;18.124;2023-05-07T08:42:04;1.42;;;1.23;;
10721;SDS011;5412;59.450;18.124;2023-05-07T08:44:34;2.78;;;1.60;;
10721;SDS011;5412;59.450;18.124;2023-05-07T08:47:03;1.33;;;1.23;;
10721;SDS011;5412;59.450;18.124;2023-05-07T08:49:33;1.63;;;1.10;;
10721;SDS011;5412;59.450;18.124;2023-05-07T08:52:00;1.60;;;1.27;;
10721;SDS011;5412;59.450;18.124;2023-05-07T08:54:26;1.65;;;1.17;;
10721;SDS011;5412;59.450;18.124;2023-05-07T08:56:54;1.55;;;1.20;;
10721;SDS011;5412;59.450;18.124;2023-05-07T08:59:20;2.92;;;1.52;;
10721;SDS011;5412;59.450;18.124;2023-05-07T09:01:45;2.47;;;1.58;;
10721;SDS011;5412;59.450;18.124;2023-05-07T09:04:11;1.45;;;1.35;;
10721;SDS011;5412;59.450;18.124;2023-05-07T09:06:38;2.25;;;1.40;;
10721;SDS011;5412;59.450;18.124;2023-05-07T09:09:06;2.55;;;2.08;;
10721;SDS011;5412;59.450;18.124;2023-05-07T09:11:33;1.63;;;1.20;;
10721;SDS011;5412;59.450;18.124;2023-05-07T09:13:59;2.40;;;1.20;;
10721;SDS011;5412;59.450;18.124;2023-05-07T09:16:26;5.07;;;1.48;;
10721;SDS011;5412;59.450;18.124;2023-05-07T09:18:54;1.98;;;1.17;;
10721;SDS011;5412;59.450;18.124;2023-05-07T09:21:20;2.35;;;1.40;;
10721;SDS011;5412;59.450;18.124;2023-05-07T09:23:48;1.73;;;1.40;;
10721;SDS011;5412;59.450;18.124;2023-05-07T09:26:16;1.70;;;1.60;;
10721;SDS011;5412;59.450;18.124;2023-05-07T09:28:43;1.33;;;1.23;;
10721;SDS011;5412;59.450;18.124;2023-05-07T09:31:10;1.70;;;1.60;;
10721;SDS011;5412;59.450;18.124;2023-05-07T09:33:36;11.38;;;9.35;;
10721;SDS011;5412;59.450;18.124;2023-05-07T09:36:06;11.70;;;9.07;;
10721;SDS011;5412;59.450;18.124;2023-05-07T09:38:33;2.42;;;2.22;;
10721;SDS011;5412;59.450;18.124;2023-05-07T09:41:07;3.33;;;3.03;;
10721;SDS011;5412;59.450;18.124;2023-05-07T09:43:34;3.83;;;1.23;;
10721;SDS011;5412;59.450;18.124;2023-05-07T09:46:02;3.45;;;1.30;;
10721;SDS011;5412;59.450;18.124;2023-05-07T09:48:31;2.97;;;1.30;;
10721;SDS011;5412;59.450;18.124;2023-05-07T09:51:02;1.30;;;1.20;;
10721;SDS011;5412;59.450;18.124;2023-05-07T09:53:31;2.28;;;1.38;;
10721;SDS011;5412;59.450;18.124;2023-05-07T09:55:58;1.25;;;1.10;;
10721;SDS011;5412;59.450;18.124;2023-05-07T09:58:25;1.30;;;1.20;;
10721;SDS011;5412;59.450;18.124;2023-05-07T10:00:51;2.10;;;1.30;;
10721;SDS011;5412;59.450;18.124;2023-05-07T10:03:18;1.67;;;1.27;;
10721;SDS011;5412;59.450;18.124;2023-05-07T10:05:46;2.85;;;1.15;;
10721;SDS011;5412;59.450;18.124;2023-05-07T10:08:12;1.35;;;1.13;;
10721;SDS011;5412;59.450;18.124;2023-05-07T10:10:38;2.90;;;1.77;;
10721;SDS011;5412;59.450;18.124;2023-05-07T10:13:05;2.78;;;1.75;;
10721;SDS011;5412;59.450;18.124;2023-05-07T10:15:35;1.63;;;1.30;;
10721;SDS011;5412;59.450;18.124;2023-05-07T10:18:03;2.58;;;1.50;;
10721;SDS011;5412;59.450;18.124;2023-05-07T10:20:30;2.30;;;1.27;;
10721;SDS011;5412;59.450;18.124;2023-05-07T10:22:58;2.72;;;1.17;;
10721;SDS011;5412;59.450;18.124;2023-05-07T10:25:33;2.78;;;1.50;;
10721;SDS011;5412;59.450;18.124;2023-05-07T10:28:01;1.55;;;1.20;;
10721;SDS011;5412;59.450;18.124;2023-05-07T10:33:09;2.10;;;1.17;;
10721;SDS011;5412;59.450;18.124;2023-05-07T10:35:42;1.27;;;1.17;;
10721;SDS011;5412;59.450;18.124;2023-05-07T10:38:10;1.38;;;1.27;;
10721;SDS011;5412;59.450;18.124;2023-05-07T10:40:36;1.30;;;1.20;;
10721;SDS011;5412;59.450;18.124;2023-05-07T10:43:03;1.40;;;1.30;;
10721;SDS011;5412;59.450;18.124;2023-05-07T10:45:32;1.42;;;1.25;;
10721;SDS011;5412;59.450;18.124;2023-05-07T10:48:08;1.70;;;1.35;;
10721;SDS011;5412;59.450;18.124;2023-05-07T10:50:36;2.03;;;1.20;;
10721;SDS011;5412;59.450;18.124;2023-05-07T10:55:44;2.65;;;1.30;;
10721;SDS011;5412;59.450;18.124;2023-05-07T10:58:29;1.10;;;1.00;;
10721;SDS011;5412;59.450;18.124;2023-05-07T11:00:59;2.33;;;1.33;;
10721;SDS011;5412;59.450;18.124;2023-05-07T11:03:27;3.08;;;1.25;;
10721;SDS011;5412;59.450;18.124;2023-05-07T11:06:09;4.20;;;1.40;;
10721;SDS011;5412;59.450;18.124;2023-05-07T11:08:52;2.80;;;1.73;;
10721;SDS011;5412;59.450;18.124;2023-05-07T11:11:17;1.50;;;1.40;;
10721;SDS011;5412;59.450;18.124;2023-05-07T11:13:45;1.40;;;1.30;;
10721;SDS011;5412;59.450;18.124;2023-05-07T11:16:18;2.38;;;1.35;;
10721;SDS011;5412;59.450;18.124;2023-05-07T11:18:49;1.45;;;1.13;;
10721;SDS011;5412;59.450;18.124;2023-05-07T11:21:32;2.45;;;1.52;;
10721;SDS011;5412;59.450;18.124;2023-05-07T11:24:03;1.30;;;1.10;;
10721;SDS011;5412;59.450;18.124;2023-05-07T11:26:31;2.28;;;1.38;;
10721;SDS011;5412;59.450;18.124;2023-05-07T11:29:15;2.55;;;1.38;;
10721;SDS011;5412;59.450;18.124;2023-05-07T11:31:42;1.35;;;1.25;;
10721;SDS011;5412;59.450;18.124;2023-05-07T11:34:08;2.38;;;1.25;;
10721;SDS011;5412;59.450;18.124;2023-05-07T11:36:37;1.38;;;1.15;;
10721;SDS011;5412;59.450;18.124;2023-05-07T11:39:27;3.30;;;1.48;;
10721;SDS011;5412;59.450;18.124;2023-05-07T11:41:53;1.70;;;1.27;;
10721;SDS011;5412;59.450;18.124;2023-05-07T11:44:19;2.58;;;1.30;;
10721;SDS011;5412;59.450;18.124;2023-05-07T11:46:45;2.53;;;1.40;;
10721;SDS011;5412;59.450;18.124;2023-05-07T11:49:11;9.00;;;1.58;;
10721;SDS011;5412;59.450;18.124;2023-05-07T11:51:37;1.38;;;1.10;;
10721;SDS011;5412;59.450;18.124;2023-05-07T11:54:04;2.20;;;0.90;;
10721;SDS011;5412;59.450;18.124;2023-05-07T11:56:34;2.55;;;1.40;;
10721;SDS011;5412;59.450;18.124;2023-05-07T11:59:04;1.83;;;1.50;;
10721;SDS011;5412;59.450;18.124;2023-05-07T12:01:29;1.58;;;1.25;;
10721;SDS011;5412;59.450;18.124;2023-05-07T12:03:55;4.32;;;1.45;;
10721;SDS011;5412;59.450;18.124;2023-05-07T12:06:21;2.42;;;1.20;;
10721;SDS011;5412;59.450;18.124;2023-05-07T12:08:46;1.55;;;1.27;;
10721;SDS011;5412;59.450;18.124;2023-05-07T12:11:14;2.05;;;1.35;;
10721;SDS011;5412;59.450;18.124;2023-05-07T12:13:50;4.55;;;1.33;;
10721;SDS011;5412;59.450;18.124;2023-05-07T12:16:16;4.15;;;1.30;;
10721;SDS011;5412;59.450;18.124;2023-05-07T12:18:42;1.42;;;1.30;;
10721;SDS011;5412;59.450;18.124;2023-05-07T12:21:09;3.70;;;1.33;;
10721;SDS011;5412;59.450;18.124;2023-05-07T12:23:35;3.30;;;1.70;;
10721;SDS011;5412;59.450;18.124;2023-05-07T12:26:02;3.88;;;1.65;;
10721;SDS011;5412;59.450;18.124;2023-05-07T12:28:28;1.48;;;1.35;;
10721;SDS011;5412;59.450;18.124;2023-05-07T12:30:55;4.03;;;1.38;;
10721;SDS011;5412;59.450;18.124;2023-05-07T12:33:25;1.67;;;1.20;;
10721;SDS011;5412;59.450;18.124;2023-05-07T12:35:53;1.30;;;1.20;;
10721;SDS011;5412;59.450;18.124;2023-05-07T12:38:20;1.67;;;1.40;;
10721;SDS011;5412;59.450;18.124;2023-05-07T12:40:50;2.70;;;1.48;;
10721;SDS011;5412;59.450;18.124;2023-05-07T12:45:46;2.58;;;1.20;;
10721;SDS011;5412;59.450;18.124;2023-05-07T12:48:13;5.40;;;2.25;;
10721;SDS011;5412;59.450;18.124;2023-05-07T12:50:39;1.70;;;1.48;;
10721;SDS011;5412;59.450;18.124;2023-05-07T12:53:05;1.45;;;1.30;;
10721;SDS011;5412;59.450;18.124;2023-05-07T12:55:49;4.63;;;1.40;;
10721;SDS011;5412;59.450;18.124;2023-05-07T12:58:17;1.67;;;1.30;;
10721;SDS011;5412;59.450;18.124;2023-05-07T13:00:50;3.00;;;1.30;;
10721;SDS011;5412;59.450;18.124;2023-05-07T13:05:53;4.38;;;1.48;;
10721;SDS011;5412;59.450;18.124;2023-05-07T13:08:27;5.00;;;1.30;;
10721;SDS011;5412;59.450;18.124;2023-05-07T13:10:55;3.50;;;1.30;;
10721;SDS011;5412;59.450;18.124;2023-05-07T13:13:22;2.65;;;1.40;;
10721;SDS011;5412;59.450;18.124;2023-05-07T13:15:48;2.53;;;1.60;;
10721;SDS011;5412;59.450;18.124;2023-05-07T13:18:14;4.63;;;1.30;;
10721;SDS011;5412;59.450;18.124;2023-05-07T13:20:39;4.93;;;1.40;;
10721;SDS011;5412;59.450;18.124;2023-05-07T13:23:05;2.63;;;1.17;;
10721;SDS011;5412;59.450;18.124;2023-05-07T13:25:31;1.63;;;1.17;;
10721;SDS011;5412;59.450;18.124;2023-05-07T13:27:57;4.47;;;1.85;;
10721;SDS011;5412;59.450;18.124;2023-05-07T13:30:23;4.15;;;3.17;;
10721;SDS011;5412;59.450;18.124;2023-05-07T13:32:48;3.85;;;1.83;;
10721;SDS011;5412;59.450;18.124;2023-05-07T13:35:15;1.45;;;1.30;;
10721;SDS011;5412;59.450;18.124;2023-05-07T13:37:41;6.40;;;1.80;;
10721;SDS011;5412;59.450;18.124;2023-05-07T13:40:07;3.33;;;1.48;;
10721;SDS011;5412;59.450;18.124;2023-05-07T13:42:33;1.80;;;1.55;;
10721;SDS011;5412;59.450;18.124;2023-05-07T13:44:59;1.42;;;1.25;;
10721;SDS011;5412;59.450;18.124;2023-05-07T13:47:25;2.45;;;1.23;;
10721;SDS011;5412;59.450;18.124;2023-05-07T13:49:51;1.05;;;0.98;;
10721;SDS011;5412;59.450;18.124;2023-05-07T13:52:18;2.10;;;1.48;;
10721;SDS011;5412;59.450;18.124;2023-05-07T13:54:45;2.05;;;1.45;;
10721;SDS011;5412;59.450;18.124;2023-05-07T13:57:10;2.80;;;1.42;;
10721;SDS011;5412;59.450;18.124;2023-05-07T13:59:36;3.40;;;1.30;;
10721;SDS011;5412;59.450;18.124;2023-05-07T14:02:02;2.45;;;1.10;;
10721;SDS011;5412;59.450;18.124;2023-05-07T14:04:28;2.97;;;1.20;;
10721;SDS011;5412;59.450;18.124;2023-05-07T14:06:55;2.22;;;1.40;;
10721;SDS011;5412;59.450;18.124;2023-05-07T14:09:21;2.05;;;1.35;;
10721;SDS011;5412;59.450;18.124;2023-05-07T14:11:47;2.15;;;1.33;;
10721;SDS011;5412;59.450;18.124;2023-05-07T14:14:16;3.25;;;1.80;;
10721;SDS011;5412;59.450;18.124;2023-05-07T14:16:42;3.28;;;1.58;;
10721;SDS011;5412;59.450;18.124;2023-05-07T14:19:08;5.78;;;2.10;;
10721;SDS011;5412;59.450;18.124;2023-05-07T14:21:33;4.80;;;2.17;;
10721;SDS011;5412;59.450;18.124;2023-05-07T14:23:59;6.10;;;3.58;;
10721;SDS011;5412;59.450;18.124;2023-05-07T14:26:25;4.43;;;2.78;;
10721;SDS011;5412;59.450;18.124;2023-05-07T14:28:52;2.95;;;1.70;;
10721;SDS011;5412;59.450;18.124;2023-05-07T14:31:20;4.07;;;1.33;;
10721;SDS011;5412;59.450;18.124;2023-05-07T14:33:46;2.97;;;1.27;;
10721;SDS011;5412;59.450;18.124;2023-05-07T14:36:12;3.20;;;1.80;;
10721;SDS011;5412;59.450;18.124;2023-05-07T14:38:37;2.65;;;1.65;;
10721;SDS011;5412;59.450;18.124;2023-05-07T14:41:03;2.65;;;1.40;;
10721;SDS011;5412;59.450;18.124;2023-05-07T14:43:29;2.38;;;1.70;;
10721;SDS011;5412;59.450;18.124;2023-05-07T14:45:55;1.60;;;1.20;;
10721;SDS011;5412;59.450;18.124;2023-05-07T14:48:20;4.13;;;1.27;;
10721;SDS011;5412;59.450;18.124;2023-05-07T14:50:46;1.63;;;1.20;;
10721;SDS011;5412;59.450;18.124;2023-05-07T14:53:13;2.80;;;1.15;;
10721;SDS011;5412;59.450;18.124;2023-05-07T14:55:39;1.48;;;1.38;;